Terminal Aerodrome Forecast
Issued by NWS

Home | Current Version | Previous Version | Text Only | Print | Product List | Glossary On
Versions: 1 2 3 4 5 6 7 8 9 10 11 12 13 14 15 16 17 18 19 20 21 22 23 24 25 26 27 28 29 30 31 32 33 34 35 36
000
FTAK31 PANC 301731
TAFADU
TAF
PADU 301731Z 3018/0118 13029G41KT 5SM -RA BR OVC015
     FM010000 16018G27KT 6SM -SHRA OVC015
     FM010600 22015G25KT P6SM -SHRA SCT015 OVC025
     FM011200 26025G35KT P6SM -SHRA SCT025 BKN035=

USA.gov is the U.S. government's official web portal to all federal, state and local government web resources and services.